sensor_id;sensor_type;location;lat;lon;timestamp;temperature;humidity
20911;DHT22;10615;42.702;23.314;2023-01-23T00:00:38;9.50;99.90
20911;DHT22;10615;42.702;23.314;2023-01-23T00:01:39;9.50;99.90
20911;DHT22;10615;42.702;23.314;2023-01-23T00:02:40;9.50;99.90
20911;DHT22;10615;42.702;23.314;2023-01-23T00:03:41;9.50;99.90
20911;DHT22;10615;42.702;23.314;2023-01-23T00:04:42;9.50;99.90
20911;DHT22;10615;42.702;23.314;2023-01-23T00:05:42;9.50;99.90
20911;DHT22;10615;42.702;23.314;2023-01-23T00:06:43;9.50;99.90
20911;DHT22;10615;42.702;23.314;2023-01-23T00:07:44;9.50;99.90
20911;DHT22;10615;42.702;23.314;2023-01-23T00:08:45;9.50;99.90
20911;DHT22;10615;42.702;23.314;2023-01-23T00:09:46;9.50;99.90
20911;DHT22;10615;42.702;23.314;2023-01-23T00:10:47;9.50;99.90
20911;DHT22;10615;42.702;23.314;2023-01-23T00:11:47;9.50;99.90
20911;DHT22;10615;42.702;23.314;2023-01-23T00:12:48;9.50;99.90
20911;DHT22;10615;42.702;23.314;2023-01-23T00:13:50;9.50;99.90
20911;DHT22;10615;42.702;23.314;2023-01-23T00:14:50;9.50;99.90
20911;DHT22;10615;42.702;23.314;2023-01-23T00:15:51;9.50;99.90
20911;DHT22;10615;42.702;23.314;2023-01-23T00:16:52;9.50;99.90
20911;DHT22;10615;42.702;23.314;2023-01-23T00:17:52;9.50;99.90
20911;DHT22;10615;42.702;23.314;2023-01-23T00:18:54;9.40;99.90
20911;DHT22;10615;42.702;23.314;2023-01-23T00:19:54;9.40;99.90
20911;DHT22;10615;42.702;23.314;2023-01-23T00:20:55;9.40;99.90
20911;DHT22;10615;42.702;23.314;2023-01-23T00:21:59;9.40;99.90
20911;DHT22;10615;42.702;23.314;2023-01-23T00:23:00;9.40;99.90
20911;DHT22;10615;42.702;23.314;2023-01-23T00:24:01;9.40;99.90
20911;DHT22;10615;42.702;23.314;2023-01-23T00:25:02;9.40;99.90
20911;DHT22;10615;42.702;23.314;2023-01-23T00:26:09;9.40;99.90
20911;DHT22;10615;42.702;23.314;2023-01-23T00:27:10;9.40;99.90
20911;DHT22;10615;42.702;23.314;2023-01-23T00:28:11;9.40;99.90
20911;DHT22;10615;42.702;23.314;2023-01-23T00:29:12;9.40;99.90
20911;DHT22;10615;42.702;23.314;2023-01-23T00:30:15;9.40;99.90
20911;DHT22;10615;42.702;23.314;2023-01-23T00:31:19;9.40;99.90
20911;DHT22;10615;42.702;23.314;2023-01-23T00:32:21;9.40;99.90
20911;DHT22;10615;42.702;23.314;2023-01-23T00:33:22;9.40;99.90
20911;DHT22;10615;42.702;23.314;2023-01-23T00:34:22;9.50;99.90
20911;DHT22;10615;42.702;23.314;2023-01-23T00:35:23;9.40;99.90
20911;DHT22;10615;42.702;23.314;2023-01-23T00:36:26;9.40;99.90
20911;DHT22;10615;42.702;23.314;2023-01-23T00:37:27;9.40;99.90
20911;DHT22;10615;42.702;23.314;2023-01-23T00:38:28;9.40;99.90
20911;DHT22;10615;42.702;23.314;2023-01-23T00:39:29;9.40;99.90
20911;DHT22;10615;42.702;23.314;2023-01-23T00:40:29;9.40;99.90
20911;DHT22;10615;42.702;23.314;2023-01-23T00:41:30;9.40;99.90
20911;DHT22;10615;42.702;23.314;2023-01-23T00:42:31;9.40;99.90
20911;DHT22;10615;42.702;23.314;2023-01-23T00:43:32;9.40;99.90
20911;DHT22;10615;42.702;23.314;2023-01-23T00:44:33;9.40;99.90
20911;DHT22;10615;42.702;23.314;2023-01-23T00:45:34;9.40;99.90
20911;DHT22;10615;42.702;23.314;2023-01-23T00:46:35;9.40;99.90
20911;DHT22;10615;42.702;23.314;2023-01-23T00:47:36;9.30;99.90
20911;DHT22;10615;42.702;23.314;2023-01-23T00:48:36;9.40;99.90
20911;DHT22;10615;42.702;23.314;2023-01-23T00:49:37;9.30;99.90
20911;DHT22;10615;42.702;23.314;2023-01-23T00:50:38;9.30;99.90
20911;DHT22;10615;42.702;23.314;2023-01-23T00:51:38;9.30;99.90
20911;DHT22;10615;42.702;23.314;2023-01-23T00:52:39;9.30;99.90
20911;DHT22;10615;42.702;23.314;2023-01-23T00:53:40;9.30;99.90
20911;DHT22;10615;42.702;23.314;2023-01-23T00:54:40;9.30;99.90
20911;DHT22;10615;42.702;23.314;2023-01-23T00:55:41;9.30;99.90
20911;DHT22;10615;42.702;23.314;2023-01-23T00:56:42;9.30;99.90
20911;DHT22;10615;42.702;23.314;2023-01-23T00:57:43;9.30;99.90
20911;DHT22;10615;42.702;23.314;2023-01-23T00:58:44;9.30;99.90
20911;DHT22;10615;42.702;23.314;2023-01-23T00:59:44;9.30;99.90
20911;DHT22;10615;42.702;23.314;2023-01-23T01:00:45;9.30;99.90
20911;DHT22;10615;42.702;23.314;2023-01-23T01:01:46;9.30;99.90
20911;DHT22;10615;42.702;23.314;2023-01-23T01:02:46;9.30;99.90
20911;DHT22;10615;42.702;23.314;2023-01-23T01:03:47;9.30;99.90
20911;DHT22;10615;42.702;23.314;2023-01-23T01:04:48;9.30;99.90
20911;DHT22;10615;42.702;23.314;2023-01-23T01:05:49;9.30;99.90
20911;DHT22;10615;42.702;23.314;2023-01-23T01:06:50;9.30;99.90
20911;DHT22;10615;42.702;23.314;2023-01-23T01:07:50;9.30;99.90
20911;DHT22;10615;42.702;23.314;2023-01-23T01:08:51;9.30;99.90
20911;DHT22;10615;42.702;23.314;2023-01-23T01:09:52;9.30;99.90
20911;DHT22;10615;42.702;23.314;2023-01-23T01:10:52;9.30;99.90
20911;DHT22;10615;42.702;23.314;2023-01-23T01:11:53;9.30;99.90
20911;DHT22;10615;42.702;23.314;2023-01-23T01:12:56;9.30;99.90
20911;DHT22;10615;42.702;23.314;2023-01-23T01:13:56;9.20;99.90
20911;DHT22;10615;42.702;23.314;2023-01-23T01:14:57;9.30;99.90
20911;DHT22;10615;42.702;23.314;2023-01-23T01:15:58;9.30;99.90
20911;DHT22;10615;42.702;23.314;2023-01-23T01:17:01;9.30;99.90
20911;DHT22;10615;42.702;23.314;2023-01-23T01:18:02;9.30;99.90
20911;DHT22;10615;42.702;23.314;2023-01-23T01:19:03;9.30;99.90
20911;DHT22;10615;42.702;23.314;2023-01-23T01:20:05;9.30;99.90
20911;DHT22;10615;42.702;23.314;2023-01-23T01:21:11;9.30;99.90
20911;DHT22;10615;42.702;23.314;2023-01-23T01:22:12;9.30;99.90
20911;DHT22;10615;42.702;23.314;2023-01-23T01:23:13;9.30;99.90
20911;DHT22;10615;42.702;23.314;2023-01-23T01:24:14;9.30;99.90
20911;DHT22;10615;42.702;23.314;2023-01-23T01:25:15;9.30;99.90
20911;DHT22;10615;42.702;23.314;2023-01-23T01:26:15;9.30;99.90
20911;DHT22;10615;42.702;23.314;2023-01-23T01:27:17;9.30;99.90
20911;DHT22;10615;42.702;23.314;2023-01-23T01:28:18;9.30;99.90
20911;DHT22;10615;42.702;23.314;2023-01-23T01:29:19;9.30;99.90
20911;DHT22;10615;42.702;23.314;2023-01-23T01:30:19;9.30;99.90
20911;DHT22;10615;42.702;23.314;2023-01-23T01:31:20;9.30;99.90
20911;DHT22;10615;42.702;23.314;2023-01-23T01:32:21;9.30;99.90
20911;DHT22;10615;42.702;23.314;2023-01-23T01:33:22;9.30;99.90
20911;DHT22;10615;42.702;23.314;2023-01-23T01:34:23;9.30;99.90
20911;DHT22;10615;42.702;23.314;2023-01-23T01:35:24;9.30;99.90
20911;DHT22;10615;42.702;23.314;2023-01-23T01:36:25;9.20;99.90
20911;DHT22;10615;42.702;23.314;2023-01-23T01:37:26;9.20;99.90
20911;DHT22;10615;42.702;23.314;2023-01-23T01:38:27;9.20;99.90
20911;DHT22;10615;42.702;23.314;2023-01-23T01:39:28;9.20;99.90
20911;DHT22;10615;42.702;23.314;2023-01-23T01:40:32;9.20;99.90
20911;DHT22;10615;42.702;23.314;2023-01-23T01:41:32;9.20;99.90
20911;DHT22;10615;42.702;23.314;2023-01-23T01:42:47;9.20;99.90
20911;DHT22;10615;42.702;23.314;2023-01-23T01:43:47;9.30;99.90
20911;DHT22;10615;42.702;23.314;2023-01-23T01:46:22;9.30;99.90
20911;DHT22;10615;42.702;23.314;2023-01-23T01:47:23;9.30;99.90
20911;DHT22;10615;42.702;23.314;2023-01-23T01:48:29;9.30;99.90
20911;DHT22;10615;42.702;23.314;2023-01-23T01:49:32;9.30;99.90
20911;DHT22;10615;42.702;23.314;2023-01-23T01:50:33;9.30;99.90
20911;DHT22;10615;42.702;23.314;2023-01-23T01:51:40;9.30;99.90
20911;DHT22;10615;42.702;23.314;2023-01-23T01:52:41;9.40;99.90
20911;DHT22;10615;42.702;23.314;2023-01-23T01:53:45;9.30;99.90
20911;DHT22;10615;42.702;23.314;2023-01-23T01:54:59;9.30;99.90
20911;DHT22;10615;42.702;23.314;2023-01-23T01:56:02;9.30;99.90
20911;DHT22;10615;42.702;23.314;2023-01-23T01:57:13;9.30;99.90
20911;DHT22;10615;42.702;23.314;2023-01-23T01:58:14;9.30;99.90
20911;DHT22;10615;42.702;23.314;2023-01-23T01:59:17;9.40;99.90
20911;DHT22;10615;42.702;23.314;2023-01-23T02:00:19;9.30;99.90
20911;DHT22;10615;42.702;23.314;2023-01-23T02:01:20;9.40;99.90
20911;DHT22;10615;42.702;23.314;2023-01-23T02:02:24;9.30;99.90
20911;DHT22;10615;42.702;23.314;2023-01-23T02:03:26;9.40;99.90
20911;DHT22;10615;42.702;23.314;2023-01-23T02:04:27;9.30;99.90
20911;DHT22;10615;42.702;23.314;2023-01-23T02:05:34;9.30;99.90
20911;DHT22;10615;42.702;23.314;2023-01-23T02:06:35;9.40;99.90
20911;DHT22;10615;42.702;23.314;2023-01-23T02:07:45;9.40;99.90
20911;DHT22;10615;42.702;23.314;2023-01-23T02:09:03;9.40;99.90
20911;DHT22;10615;42.702;23.314;2023-01-23T02:10:06;9.40;99.90
20911;DHT22;10615;42.702;23.314;2023-01-23T02:11:07;9.40;99.90
20911;DHT22;10615;42.702;23.314;2023-01-23T02:12:08;9.40;99.90
20911;DHT22;10615;42.702;23.314;2023-01-23T02:14:25;9.40;99.90
20911;DHT22;10615;42.702;23.314;2023-01-23T02:15:26;9.40;99.90
20911;DHT22;10615;42.702;23.314;2023-01-23T02:16:29;9.40;99.90
20911;DHT22;10615;42.702;23.314;2023-01-23T02:17:31;9.40;99.90
20911;DHT22;10615;42.702;23.314;2023-01-23T02:18:33;9.40;99.90
20911;DHT22;10615;42.702;23.314;2023-01-23T02:20:45;9.40;99.90
20911;DHT22;10615;42.702;23.314;2023-01-23T02:21:49;9.40;99.90
20911;DHT22;10615;42.702;23.314;2023-01-23T02:24:19;9.40;99.90
20911;DHT22;10615;42.702;23.314;2023-01-23T02:26:44;9.40;99.90
20911;DHT22;10615;42.702;23.314;2023-01-23T02:27:45;9.50;99.90
20911;DHT22;10615;42.702;23.314;2023-01-23T02:28:48;9.50;99.90
20911;DHT22;10615;42.702;23.314;2023-01-23T02:29:50;9.40;99.90
20911;DHT22;10615;42.702;23.314;2023-01-23T02:30:53;9.50;99.90
20911;DHT22;10615;42.702;23.314;2023-01-23T02:31:53;9.40;99.90
20911;DHT22;10615;42.702;23.314;2023-01-23T02:33:07;9.40;99.90
20911;DHT22;10615;42.702;23.314;2023-01-23T02:34:09;9.40;99.90
20911;DHT22;10615;42.702;23.314;2023-01-23T02:35:24;9.40;99.90
20911;DHT22;10615;42.702;23.314;2023-01-23T02:36:31;9.30;99.90
20911;DHT22;10615;42.702;23.314;2023-01-23T02:37:32;9.30;99.90
20911;DHT22;10615;42.702;23.314;2023-01-23T02:38:42;9.20;99.90
20911;DHT22;10615;42.702;23.314;2023-01-23T02:39:44;9.20;99.90
20911;DHT22;10615;42.702;23.314;2023-01-23T02:40:45;9.20;99.90
20911;DHT22;10615;42.702;23.314;2023-01-23T02:41:48;9.20;99.90
20911;DHT22;10615;42.702;23.314;2023-01-23T02:42:49;9.20;99.90
20911;DHT22;10615;42.702;23.314;2023-01-23T02:43:53;9.20;99.90
20911;DHT22;10615;42.702;23.314;2023-01-23T02:44:54;9.20;99.90
20911;DHT22;10615;42.702;23.314;2023-01-23T02:45:56;9.20;99.90
20911;DHT22;10615;42.702;23.314;2023-01-23T02:47:00;9.30;99.90
20911;DHT22;10615;42.702;23.314;2023-01-23T02:48:01;9.20;99.90
20911;DHT22;10615;42.702;23.314;2023-01-23T02:49:02;9.20;99.90
20911;DHT22;10615;42.702;23.314;2023-01-23T02:50:03;9.20;99.90
20911;DHT22;10615;42.702;23.314;2023-01-23T02:51:04;9.20;99.90
20911;DHT22;10615;42.702;23.314;2023-01-23T02:52:05;9.20;99.90
20911;DHT22;10615;42.702;23.314;2023-01-23T02:53:06;9.20;99.90
20911;DHT22;10615;42.702;23.314;2023-01-23T02:54:07;9.20;99.90
20911;DHT22;10615;42.702;23.314;2023-01-23T02:55:08;9.20;99.90
20911;DHT22;10615;42.702;23.314;2023-01-23T02:56:08;9.20;99.90
20911;DHT22;10615;42.702;23.314;2023-01-23T02:57:09;9.10;99.90
20911;DHT22;10615;42.702;23.314;2023-01-23T02:58:10;9.20;99.90
20911;DHT22;10615;42.702;23.314;2023-01-23T02:59:29;9.20;99.90
20911;DHT22;10615;42.702;23.314;2023-01-23T03:00:49;9.10;99.90
20911;DHT22;10615;42.702;23.314;2023-01-23T03:01:49;9.10;99.90
20911;DHT22;10615;42.702;23.314;2023-01-23T03:02:50;9.10;99.90
20911;DHT22;10615;42.702;23.314;2023-01-23T03:03:51;9.10;99.90
20911;DHT22;10615;42.702;23.314;2023-01-23T03:04:53;9.10;99.90
20911;DHT22;10615;42.702;23.314;2023-01-23T03:05:53;9.10;99.90
20911;DHT22;10615;42.702;23.314;2023-01-23T03:06:55;9.10;99.90
20911;DHT22;10615;42.702;23.314;2023-01-23T03:07:55;9.00;99.90
20911;DHT22;10615;42.702;23.314;2023-01-23T03:08:57;9.00;99.90
20911;DHT22;10615;42.702;23.314;2023-01-23T03:09:59;9.00;99.90
20911;DHT22;10615;42.702;23.314;2023-01-23T03:11:00;9.00;99.90
20911;DHT22;10615;42.702;23.314;2023-01-23T03:12:01;9.00;99.90
20911;DHT22;10615;42.702;23.314;2023-01-23T03:13:02;9.00;99.90
20911;DHT22;10615;42.702;23.314;2023-01-23T03:14:11;9.00;99.90
20911;DHT22;10615;42.702;23.314;2023-01-23T03:15:12;8.90;99.90
20911;DHT22;10615;42.702;23.314;2023-01-23T03:16:13;8.90;99.90
20911;DHT22;10615;42.702;23.314;2023-01-23T03:17:14;8.90;99.90
20911;DHT22;10615;42.702;23.314;2023-01-23T03:18:15;8.90;99.90
20911;DHT22;10615;42.702;23.314;2023-01-23T03:19:18;8.90;99.90
20911;DHT22;10615;42.702;23.314;2023-01-23T03:20:19;8.90;99.90
20911;DHT22;10615;42.702;23.314;2023-01-23T03:21:23;8.90;99.90
20911;DHT22;10615;42.702;23.314;2023-01-23T03:22:23;8.90;99.90
20911;DHT22;10615;42.702;23.314;2023-01-23T03:23:24;8.90;99.90
20911;DHT22;10615;42.702;23.314;2023-01-23T03:24:25;8.90;99.90
20911;DHT22;10615;42.702;23.314;2023-01-23T03:25:25;8.90;99.90
20911;DHT22;10615;42.702;23.314;2023-01-23T03:26:26;8.90;99.90
20911;DHT22;10615;42.702;23.314;2023-01-23T03:27:27;8.90;99.90
20911;DHT22;10615;42.702;23.314;2023-01-23T03:28:28;8.90;99.90
20911;DHT22;10615;42.702;23.314;2023-01-23T03:29:47;8.90;99.90
20911;DHT22;10615;42.702;23.314;2023-01-23T03:31:06;8.90;99.90
20911;DHT22;10615;42.702;23.314;2023-01-23T03:32:07;8.90;99.90
20911;DHT22;10615;42.702;23.314;2023-01-23T03:33:08;8.90;99.90
20911;DHT22;10615;42.702;23.314;2023-01-23T03:34:08;8.90;99.90
20911;DHT22;10615;42.702;23.314;2023-01-23T03:35:09;8.90;99.90
20911;DHT22;10615;42.702;23.314;2023-01-23T03:36:13;8.90;99.90
20911;DHT22;10615;42.702;23.314;2023-01-23T03:37:14;8.90;99.90
20911;DHT22;10615;42.702;23.314;2023-01-23T03:38:16;8.90;99.90
20911;DHT22;10615;42.702;23.314;2023-01-23T03:39:18;8.90;99.90
20911;DHT22;10615;42.702;23.314;2023-01-23T03:40:37;8.90;99.90
20911;DHT22;10615;42.702;23.314;2023-01-23T03:41:57;8.90;99.90
20911;DHT22;10615;42.702;23.314;2023-01-23T03:42:57;8.90;99.90
20911;DHT22;10615;42.702;23.314;2023-01-23T03:43:58;8.90;99.90
20911;DHT22;10615;42.702;23.314;2023-01-23T03:44:58;8.90;99.90
20911;DHT22;10615;42.702;23.314;2023-01-23T03:45:59;8.80;99.90
20911;DHT22;10615;42.702;23.314;2023-01-23T03:47:00;8.90;99.90
20911;DHT22;10615;42.702;23.314;2023-01-23T03:48:01;8.90;99.90
20911;DHT22;10615;42.702;23.314;2023-01-23T03:49:01;8.90;99.90
20911;DHT22;10615;42.702;23.314;2023-01-23T03:50:03;8.90;99.90
20911;DHT22;10615;42.702;23.314;2023-01-23T03:51:03;8.90;99.90
20911;DHT22;10615;42.702;23.314;2023-01-23T03:52:04;8.90;99.90
20911;DHT22;10615;42.702;23.314;2023-01-23T03:53:05;8.90;99.90
20911;DHT22;10615;42.702;23.314;2023-01-23T03:54:06;8.90;99.90
20911;DHT22;10615;42.702;23.314;2023-01-23T03:55:07;9.00;99.90
20911;DHT22;10615;42.702;23.314;2023-01-23T03:56:08;8.90;99.90
20911;DHT22;10615;42.702;23.314;2023-01-23T03:57:09;8.90;99.90
20911;DHT22;10615;42.702;23.314;2023-01-23T03:58:09;9.00;99.90
20911;DHT22;10615;42.702;23.314;2023-01-23T03:59:10;9.00;99.90
20911;DHT22;10615;42.702;23.314;2023-01-23T04:00:11;9.00;99.90
20911;DHT22;10615;42.702;23.314;2023-01-23T04:01:13;9.00;99.90
20911;DHT22;10615;42.702;23.314;2023-01-23T04:02:13;9.00;99.90
20911;DHT22;10615;42.702;23.314;2023-01-23T04:03:14;9.00;99.90
20911;DHT22;10615;42.702;23.314;2023-01-23T04:04:15;9.00;99.90
20911;DHT22;10615;42.702;23.314;2023-01-23T04:05:15;9.00;99.90
20911;DHT22;10615;42.702;23.314;2023-01-23T04:06:17;9.00;99.90
20911;DHT22;10615;42.702;23.314;2023-01-23T04:07:18;8.90;99.90
20911;DHT22;10615;42.702;23.314;2023-01-23T04:08:19;8.90;99.90
20911;DHT22;10615;42.702;23.314;2023-01-23T04:09:22;8.90;99.90
20911;DHT22;10615;42.702;23.314;2023-01-23T04:10:27;8.90;99.90
20911;DHT22;10615;42.702;23.314;2023-01-23T04:11:28;8.90;99.90
20911;DHT22;10615;42.702;23.314;2023-01-23T04:12:29;8.90;99.90
20911;DHT22;10615;42.702;23.314;2023-01-23T04:13:30;8.80;99.90
20911;DHT22;10615;42.702;23.314;2023-01-23T04:14:31;8.80;99.90
20911;DHT22;10615;42.702;23.314;2023-01-23T04:15:36;8.80;99.90
20911;DHT22;10615;42.702;23.314;2023-01-23T04:16:37;8.80;99.90
20911;DHT22;10615;42.702;23.314;2023-01-23T04:17:37;8.80;99.90
20911;DHT22;10615;42.702;23.314;2023-01-23T04:18:39;8.70;99.90
20911;DHT22;10615;42.702;23.314;2023-01-23T04:19:39;8.80;99.90
20911;DHT22;10615;42.702;23.314;2023-01-23T04:20:40;8.80;99.90
20911;DHT22;10615;42.702;23.314;2023-01-23T04:21:40;8.80;99.90
20911;DHT22;10615;42.702;23.314;2023-01-23T04:22:41;8.70;99.90
20911;DHT22;10615;42.702;23.314;2023-01-23T04:23:42;8.80;99.90
20911;DHT22;10615;42.702;23.314;2023-01-23T04:24:43;8.80;99.90
20911;DHT22;10615;42.702;23.314;2023-01-23T04:25:43;8.80;99.90
20911;DHT22;10615;42.702;23.314;2023-01-23T04:26:44;8.80;99.90
20911;DHT22;10615;42.702;23.314;2023-01-23T04:27:45;8.80;99.90
20911;DHT22;10615;42.702;23.314;2023-01-23T04:28:45;8.70;99.90
20911;DHT22;10615;42.702;23.314;2023-01-23T04:29:46;8.80;99.90
20911;DHT22;10615;42.702;23.314;2023-01-23T04:30:50;8.80;99.90
20911;DHT22;10615;42.702;23.314;2023-01-23T04:31:51;8.80;99.90
20911;DHT22;10615;42.702;23.314;2023-01-23T04:32:52;8.80;99.90
20911;DHT22;10615;42.702;23.314;2023-01-23T04:33:52;8.80;99.90
20911;DHT22;10615;42.702;23.314;2023-01-23T04:34:53;8.80;99.90
20911;DHT22;10615;42.702;23.314;2023-01-23T04:35:56;8.80;99.90
20911;DHT22;10615;42.702;23.314;2023-01-23T04:36:57;8.80;99.90
20911;DHT22;10615;42.702;23.314;2023-01-23T04:37:58;8.80;99.90
20911;DHT22;10615;42.702;23.314;2023-01-23T04:38:59;8.80;99.90
20911;DHT22;10615;42.702;23.314;2023-01-23T04:39:59;8.80;99.90
20911;DHT22;10615;42.702;23.314;2023-01-23T04:41:00;8.80;99.90
20911;DHT22;10615;42.702;23.314;2023-01-23T04:42:01;8.80;99.90
20911;DHT22;10615;42.702;23.314;2023-01-23T04:43:01;8.80;99.90
20911;DHT22;10615;42.702;23.314;2023-01-23T04:44:03;8.80;99.90
20911;DHT22;10615;42.702;23.314;2023-01-23T04:45:22;8.80;99.90
20911;DHT22;10615;42.702;23.314;2023-01-23T04:46:22;8.80;99.90
20911;DHT22;10615;42.702;23.314;2023-01-23T04:47:23;8.80;99.90
20911;DHT22;10615;42.702;23.314;2023-01-23T04:48:24;8.80;99.90
20911;DHT22;10615;42.702;23.314;2023-01-23T04:49:25;8.70;99.90
20911;DHT22;10615;42.702;23.314;2023-01-23T04:50:26;8.70;99.90
20911;DHT22;10615;42.702;23.314;2023-01-23T04:51:26;8.70;99.90
20911;DHT22;10615;42.702;23.314;2023-01-23T04:52:27;8.70;99.90
20911;DHT22;10615;42.702;23.314;2023-01-23T04:53:28;8.70;99.90
20911;DHT22;10615;42.702;23.314;2023-01-23T04:54:29;8.70;99.90
20911;DHT22;10615;42.702;23.314;2023-01-23T04:55:30;8.70;99.90
20911;DHT22;10615;42.702;23.314;2023-01-23T04:56:31;8.70;99.90
20911;DHT22;10615;42.702;23.314;2023-01-23T04:57:32;8.70;99.90
20911;DHT22;10615;42.702;23.314;2023-01-23T04:58:32;8.70;99.90
20911;DHT22;10615;42.702;23.314;2023-01-23T04:59:33;8.70;99.90
20911;DHT22;10615;42.702;23.314;2023-01-23T05:00:33;8.70;99.90
20911;DHT22;10615;42.702;23.314;2023-01-23T05:01:34;8.70;99.90
20911;DHT22;10615;42.702;23.314;2023-01-23T05:02:35;8.60;99.90
20911;DHT22;10615;42.702;23.314;2023-01-23T05:03:36;8.60;99.90
20911;DHT22;10615;42.702;23.314;2023-01-23T05:04:37;8.60;99.90
20911;DHT22;10615;42.702;23.314;2023-01-23T05:05:37;8.60;99.90
20911;DHT22;10615;42.702;23.314;2023-01-23T05:06:38;8.50;99.90
20911;DHT22;10615;42.702;23.314;2023-01-23T05:07:39;8.50;99.90
20911;DHT22;10615;42.702;23.314;2023-01-23T05:08:39;8.50;99.90
20911;DHT22;10615;42.702;23.314;2023-01-23T05:09:40;8.50;99.90
20911;DHT22;10615;42.702;23.314;2023-01-23T05:10:41;8.50;99.90
20911;DHT22;10615;42.702;23.314;2023-01-23T05:11:42;8.50;99.90
20911;DHT22;10615;42.702;23.314;2023-01-23T05:12:42;8.50;99.90
20911;DHT22;10615;42.702;23.314;2023-01-23T05:13:43;8.50;99.90
20911;DHT22;10615;42.702;23.314;2023-01-23T05:14:44;8.50;99.90
20911;DHT22;10615;42.702;23.314;2023-01-23T05:15:45;8.40;99.90
20911;DHT22;10615;42.702;23.314;2023-01-23T05:16:45;8.40;99.90
20911;DHT22;10615;42.702;23.314;2023-01-23T05:17:47;8.40;99.90
20911;DHT22;10615;42.702;23.314;2023-01-23T05:18:48;8.40;99.90
20911;DHT22;10615;42.702;23.314;2023-01-23T05:19:48;8.40;99.90
20911;DHT22;10615;42.702;23.314;2023-01-23T05:20:49;8.40;99.90
20911;DHT22;10615;42.702;23.314;2023-01-23T05:21:50;8.40;99.90
20911;DHT22;10615;42.702;23.314;2023-01-23T05:22:50;8.40;99.90
20911;DHT22;10615;42.702;23.314;2023-01-23T05:23:54;8.40;99.90
20911;DHT22;10615;42.702;23.314;2023-01-23T05:24:54;8.40;99.90
20911;DHT22;10615;42.702;23.314;2023-01-23T05:25:55;8.40;99.90
20911;DHT22;10615;42.702;23.314;2023-01-23T05:26:56;8.40;99.90
20911;DHT22;10615;42.702;23.314;2023-01-23T05:27:56;8.50;99.90
20911;DHT22;10615;42.702;23.314;2023-01-23T05:28:57;8.40;99.90
20911;DHT22;10615;42.702;23.314;2023-01-23T05:29:58;8.40;99.90
20911;DHT22;10615;42.702;23.314;2023-01-23T05:30:58;8.40;99.90
20911;DHT22;10615;42.702;23.314;2023-01-23T05:31:59;8.40;99.90
20911;DHT22;10615;42.702;23.314;2023-01-23T05:33:00;8.40;99.90
20911;DHT22;10615;42.702;23.314;2023-01-23T05:34:00;8.40;99.90
20911;DHT22;10615;42.702;23.314;2023-01-23T05:35:01;8.40;99.90
20911;DHT22;10615;42.702;23.314;2023-01-23T05:36:02;8.40;99.90
20911;DHT22;10615;42.702;23.314;2023-01-23T05:37:03;8.40;99.90
20911;DHT22;10615;42.702;23.314;2023-01-23T05:38:03;8.40;99.90
20911;DHT22;10615;42.702;23.314;2023-01-23T05:39:04;8.40;99.90
20911;DHT22;10615;42.702;23.314;2023-01-23T05:40:07;8.40;99.90
20911;DHT22;10615;42.702;23.314;2023-01-23T05:41:08;8.40;99.90
20911;DHT22;10615;42.702;23.314;2023-01-23T05:42:09;8.40;99.90
20911;DHT22;10615;42.702;23.314;2023-01-23T05:43:14;8.40;99.90
20911;DHT22;10615;42.702;23.314;2023-01-23T05:44:14;8.40;99.90
20911;DHT22;10615;42.702;23.314;2023-01-23T05:45:16;8.40;99.90
20911;DHT22;10615;42.702;23.314;2023-01-23T05:46:17;8.40;99.90
20911;DHT22;10615;42.702;23.314;2023-01-23T05:47:17;8.40;99.90
20911;DHT22;10615;42.702;23.314;2023-01-23T05:48:18;8.40;99.90
20911;DHT22;10615;42.702;23.314;2023-01-23T05:49:19;8.40;99.90
20911;DHT22;10615;42.702;23.314;2023-01-23T05:50:19;8.50;99.90
20911;DHT22;10615;42.702;23.314;2023-01-23T05:51:23;8.50;99.90
20911;DHT22;10615;42.702;23.314;2023-01-23T05:52:30;8.50;99.90
20911;DHT22;10615;42.702;23.314;2023-01-23T05:53:31;8.50;99.90
20911;DHT22;10615;42.702;23.314;2023-01-23T05:54:32;8.50;99.90
20911;DHT22;10615;42.702;23.314;2023-01-23T05:55:32;8.50;99.90
20911;DHT22;10615;42.702;23.314;2023-01-23T05:56:33;8.50;99.90
20911;DHT22;10615;42.702;23.314;2023-01-23T05:57:34;8.50;99.90
20911;DHT22;10615;42.702;23.314;2023-01-23T05:58:35;8.50;99.90
20911;DHT22;10615;42.702;23.314;2023-01-23T05:59:36;8.50;99.90
20911;DHT22;10615;42.702;23.314;2023-01-23T06:00:36;8.50;99.90
20911;DHT22;10615;42.702;23.314;2023-01-23T06:01:37;8.50;99.90
20911;DHT22;10615;42.702;23.314;2023-01-23T06:02:38;8.50;99.90
20911;DHT22;10615;42.702;23.314;2023-01-23T06:03:38;8.50;99.90
20911;DHT22;10615;42.702;23.314;2023-01-23T06:04:39;8.50;99.90
20911;DHT22;10615;42.702;23.314;2023-01-23T06:05:40;8.50;99.90
20911;DHT22;10615;42.702;23.314;2023-01-23T06:06:42;8.50;99.90
20911;DHT22;10615;42.702;23.314;2023-01-23T06:07:43;8.50;99.90
20911;DHT22;10615;42.702;23.314;2023-01-23T06:08:43;8.50;99.90
20911;DHT22;10615;42.702;23.314;2023-01-23T06:09:44;8.50;99.90
20911;DHT22;10615;42.702;23.314;2023-01-23T06:10:45;8.50;99.90
20911;DHT22;10615;42.702;23.314;2023-01-23T06:11:46;8.50;99.90
20911;DHT22;10615;42.702;23.314;2023-01-23T06:12:47;8.50;99.90
20911;DHT22;10615;42.702;23.314;2023-01-23T06:13:47;8.50;99.90
20911;DHT22;10615;42.702;23.314;2023-01-23T06:14:48;8.50;99.90
20911;DHT22;10615;42.702;23.314;2023-01-23T06:15:49;8.50;99.90
20911;DHT22;10615;42.702;23.314;2023-01-23T06:16:50;8.60;99.90
20911;DHT22;10615;42.702;23.314;2023-01-23T06:17:50;8.60;99.90
20911;DHT22;10615;42.702;23.314;2023-01-23T06:18:51;8.50;99.90
20911;DHT22;10615;42.702;23.314;2023-01-23T06:19:52;8.50;99.90
20911;DHT22;10615;42.702;23.314;2023-01-23T06:20:59;8.50;99.90
20911;DHT22;10615;42.702;23.314;2023-01-23T06:22:00;8.60;99.90
20911;DHT22;10615;42.702;23.314;2023-01-23T06:23:01;8.60;99.90
20911;DHT22;10615;42.702;23.314;2023-01-23T06:24:02;8.60;99.90
20911;DHT22;10615;42.702;23.314;2023-01-23T06:25:03;8.60;99.90
20911;DHT22;10615;42.702;23.314;2023-01-23T06:26:04;8.50;99.90
20911;DHT22;10615;42.702;23.314;2023-01-23T06:27:05;8.60;99.90
20911;DHT22;10615;42.702;23.314;2023-01-23T06:28:08;8.50;99.90
20911;DHT22;10615;42.702;23.314;2023-01-23T06:29:09;8.60;99.90
20911;DHT22;10615;42.702;23.314;2023-01-23T06:30:10;8.50;99.90
20911;DHT22;10615;42.702;23.314;2023-01-23T06:31:11;8.60;99.90
20911;DHT22;10615;42.702;23.314;2023-01-23T06:32:12;8.60;99.90
20911;DHT22;10615;42.702;23.314;2023-01-23T06:33:13;8.60;99.90
20911;DHT22;10615;42.702;23.314;2023-01-23T06:34:14;8.50;99.90
20911;DHT22;10615;42.702;23.314;2023-01-23T06:35:15;8.50;99.90
20911;DHT22;10615;42.702;23.314;2023-01-23T06:36:16;8.50;99.90
20911;DHT22;10615;42.702;23.314;2023-01-23T06:37:17;8.50;99.90